Time;durP1;ratioP1;P1;durP2;ratioP2;P2;SDS_P1;SDS_P2;PMS_P1;PMS_P2;Temp;Humidity;BMP_temperature;BMP_pressure;BME280_temperature;BME280_humidity;BME280_pressure;Samples;Min_cycle;Max_cycle;Signal;HPM_P1;HPM_P2
2021/07/09 00:01:32;;;;;;;15.27;7.30;;;17.20;73.00;;;;;;6339528;22;20362;-86
2021/07/09 00:03:59;;;;;;;9.80;6.72;;;17.10;73.00;;;;;;6312475;22;20015;-85
2021/07/09 00:06:26;;;;;;;10.77;6.45;;;17.10;73.00;;;;;;6312243;22;20093;-85
2021/07/09 00:08:53;;;;;;;10.75;6.43;;;17.10;73.10;;;;;;6312144;22;20484;-86
2021/07/09 00:11:20;;;;;;;11.25;6.70;;;17.00;73.10;;;;;;6312445;22;20017;-86
2021/07/09 00:13:47;;;;;;;10.68;6.60;;;17.00;73.20;;;;;;6312731;22;20026;-85
2021/07/09 00:16:17;;;;;;;9.18;5.75;;;16.90;73.30;;;;;;6312152;22;20068;-86
2021/07/09 00:18:46;;;;;;;12.20;6.43;;;16.90;73.30;;;;;;6339786;22;20025;-86
2021/07/09 00:21:14;;;;;;;11.10;6.65;;;16.90;73.20;;;;;;6312941;22;20042;-86
2021/07/09 00:23:42;;;;;;;10.98;6.20;;;16.90;73.30;;;;;;6311810;22;20098;-86
2021/07/09 00:26:11;;;;;;;9.57;6.30;;;16.90;73.50;;;;;;6312186;22;20015;-86
2021/07/09 00:28:38;;;;;;;11.00;6.85;;;16.80;73.50;;;;;;6312795;22;20089;-85
2021/07/09 00:31:05;;;;;;;10.80;6.68;;;16.80;73.60;;;;;;6311885;22;20027;-85
2021/07/09 00:33:33;;;;;;;12.52;7.35;;;16.80;73.90;;;;;;6312089;22;20018;-86
2021/07/09 00:36:00;;;;;;;12.63;7.55;;;16.80;74.10;;;;;;6312597;22;20357;-86
2021/07/09 00:38:27;;;;;;;11.65;8.00;;;16.80;74.30;;;;;;6311965;22;20018;-85
2021/07/09 00:40:54;;;;;;;12.25;7.30;;;16.80;74.50;;;;;;6312208;22;20098;-85
2021/07/09 00:43:21;;;;;;;14.48;8.60;;;16.80;74.60;;;;;;6312531;22;20041;-85
2021/07/09 00:45:49;;;;;;;14.80;8.60;;;16.80;74.80;;;;;;6312137;22;20075;-85
2021/07/09 00:48:16;;;;;;;14.43;8.75;;;16.80;75.10;;;;;;6312131;22;20038;-86
2021/07/09 00:50:43;;;;;;;14.25;8.43;;;16.70;75.30;;;;;;6339744;22;20082;-86
2021/07/09 00:53:10;;;;;;;14.15;8.77;;;16.70;75.50;;;;;;6312044;22;20019;-85
2021/07/09 00:55:40;;;;;;;16.55;9.90;;;16.70;75.60;;;;;;6312818;22;20045;-86
2021/07/09 00:58:07;;;;;;;15.05;8.57;;;16.70;75.80;;;;;;6312399;22;20018;-85
2021/07/09 01:00:34;;;;;;;17.42;10.38;;;16.70;75.90;;;;;;6339616;22;20093;-87
2021/07/09 01:03:02;;;;;;;14.82;8.90;;;16.70;76.00;;;;;;6312274;22;20015;-86
2021/07/09 01:05:29;;;;;;;13.05;8.73;;;16.70;76.00;;;;;;6312363;22;20089;-86
2021/07/09 01:07:56;;;;;;;14.65;9.18;;;16.70;76.00;;;;;;6311757;22;20019;-86
2021/07/09 01:10:23;;;;;;;12.77;8.98;;;16.70;76.00;;;;;;6312042;22;20106;-86
2021/07/09 01:12:50;;;;;;;12.55;8.30;;;16.80;76.10;;;;;;6339123;22;20332;-86
2021/07/09 01:15:19;;;;;;;16.73;8.48;;;16.80;76.10;;;;;;6311828;22;20408;-87
2021/07/09 01:17:46;;;;;;;12.55;8.77;;;16.80;76.20;;;;;;6312043;22;20089;-87
2021/07/09 01:20:16;;;;;;;14.18;8.90;;;16.80;76.20;;;;;;6312176;22;20051;-86
2021/07/09 01:22:46;;;;;;;16.27;9.65;;;16.80;76.20;;;;;;6311755;22;20104;-86
2021/07/09 01:25:19;;;;;;;12.38;8.93;;;16.90;76.20;;;;;;6312397;22;20034;-87
2021/07/09 01:27:49;;;;;;;13.40;8.95;;;16.80;76.10;;;;;;6339243;22;20018;-86
2021/07/09 01:30:22;;;;;;;11.07;8.65;;;16.80;76.10;;;;;;6311978;22;20086;-85
2021/07/09 01:32:50;;;;;;;10.23;8.05;;;16.90;76.00;;;;;;6339261;22;20033;-86
2021/07/09 01:35:19;;;;;;;12.73;8.68;;;16.90;76.00;;;;;;6338877;22;20019;-85
2021/07/09 01:37:57;;;;;;;15.68;9.82;;;16.80;76.00;;;;;;6338388;22;20521;-87
2021/07/09 01:40:25;;;;;;;19.10;10.50;;;16.90;76.00;;;;;;6311446;22;20034;-86
2021/07/09 01:42:53;;;;;;;12.75;9.27;;;16.80;76.10;;;;;;6339082;22;20026;-87
2021/07/09 01:45:22;;;;;;;14.93;9.20;;;16.80;76.10;;;;;;6311530;22;20399;-87
2021/07/09 01:47:50;;;;;;;12.77;8.82;;;16.80;76.20;;;;;;6311735;22;20517;-86
2021/07/09 01:50:18;;;;;;;12.45;9.48;;;16.80;76.30;;;;;;6338762;22;20089;-86
2021/07/09 01:52:45;;;;;;;12.20;8.70;;;16.80;76.40;;;;;;6310992;22;20098;-86
2021/07/09 01:55:14;;;;;;;12.35;8.15;;;16.90;76.50;;;;;;6339029;22;20090;-86
2021/07/09 01:57:42;;;;;;;11.77;7.53;;;16.80;76.60;;;;;;6338698;22;20018;-85
2021/07/09 02:00:12;;;;;;;15.75;8.77;;;16.80;76.60;;;;;;6311338;22;20521;-86
2021/07/09 02:02:41;;;;;;;13.05;8.43;;;16.90;76.60;;;;;;6311375;22;20354;-86
2021/07/09 02:05:11;;;;;;;16.38;10.15;;;16.90;76.60;;;;;;6338275;22;20089;-85
2021/07/09 02:07:41;;;;;;;16.23;9.95;;;16.90;76.60;;;;;;6311540;22;20084;-87
2021/07/09 02:10:09;;;;;;;12.68;9.45;;;16.90;76.60;;;;;;6311849;22;20018;-86
2021/07/09 02:12:37;;;;;;;17.27;10.68;;;16.90;76.70;;;;;;6311366;22;20026;-86
2021/07/09 02:15:18;;;;;;;13.95;9.75;;;16.90;76.70;;;;;;6311348;22;20094;-86
2021/07/09 02:17:46;;;;;;;14.25;9.52;;;16.90;76.80;;;;;;6311078;22;20021;-86
2021/07/09 02:20:18;;;;;;;13.45;8.60;;;16.90;76.80;;;;;;6311293;22;20015;-87
2021/07/09 02:22:50;;;;;;;;;;;16.90;76.90;;;;;;6311964;22;20014;-85
2021/07/09 02:25:17;;;;;;;16.27;10.98;;;16.90;76.90;;;;;;6338873;22;19915;-87
2021/07/09 02:27:47;;;;;;;14.70;10.05;;;16.90;76.90;;;;;;6311333;22;20023;-86
2021/07/09 02:30:18;;;;;;;11.82;8.75;;;16.90;76.90;;;;;;6311832;22;20508;-87
2021/07/09 02:32:47;;;;;;;15.13;9.77;;;16.90;77.00;;;;;;6310970;22;20354;-86
2021/07/09 02:35:17;;;;;;;14.45;9.77;;;16.90;77.00;;;;;;6311018;22;20488;-86
2021/07/09 02:37:47;;;;;;;12.55;9.38;;;16.90;77.00;;;;;;6311393;22;20015;-86
2021/07/09 02:40:19;;;;;;;15.63;11.07;;;16.90;77.10;;;;;;6311381;22;20014;-87
2021/07/09 02:42:50;;;;;;;15.60;9.38;;;16.90;77.10;;;;;;6311538;22;20015;-87
2021/07/09 02:45:19;;;;;;;15.32;9.00;;;16.90;77.10;;;;;;6311392;22;20038;-86
2021/07/09 02:47:46;;;;;;;16.25;10.30;;;16.90;77.20;;;;;;6311196;22;20029;-86
2021/07/09 02:50:18;;;;;;;15.88;11.38;;;16.90;77.30;;;;;;6338312;22;20019;-86
2021/07/09 02:52:48;;;;;;;19.27;11.10;;;16.90;77.30;;;;;;6311635;22;20076;-86
2021/07/09 02:55:22;;;;;;;20.65;10.18;;;16.90;77.40;;;;;;6311326;22;20032;-87
2021/07/09 02:57:52;;;;;;;16.58;9.70;;;16.90;77.40;;;;;;6311195;22;20038;-86
2021/07/09 03:00:20;;;;;;;18.98;10.95;;;16.90;77.50;;;;;;6311597;22;20098;-86
2021/07/09 03:07:23;;;;;;;15.15;9.85;;;16.90;77.50;;;;;;6338402;22;20456;-87
2021/07/09 03:10:41;;;;;;;13.52;10.02;;;16.90;77.60;;;;;;6338557;22;20038;-87
2021/07/09 03:15:30;;;;;;;15.18;9.50;;;16.90;77.60;;;;;;6093161;23;20457;-86
2021/07/09 03:17:45;;;;;;;16.23;9.27;;;16.90;77.70;;;;;;6093129;23;20101;-86
2021/07/09 03:20:18;;;;;;;14.75;9.85;;;16.90;77.70;;;;;;6094087;23;20042;-86
2021/07/09 03:26:39;;;;;;;18.02;10.18;;;16.90;77.70;;;;;;6007999;23;20527;-86
2021/07/09 03:33:28;;;;;;;15.10;10.35;;;16.90;77.80;;;;;;6008082;23;20023;-86
2021/07/09 03:43:37;;;;;;;16.65;9.77;;;16.80;77.90;;;;;;6007902;23;20051;-86
2021/07/09 03:47:13;;;;;;;19.17;10.13;;;16.90;78.00;;;;;;5984552;23;20107;-88
2021/07/09 03:50:05;;;;;;;20.10;10.55;;;16.90;78.00;;;;;;5909480;24;20077;-87
2021/07/09 03:52:46;;;;;;;17.50;10.88;;;16.90;78.10;;;;;;5924515;24;20013;-86
2021/07/09 03:56:02;;;;;;;;;;;;;;;;;;;;;
2021/07/09 03:59:01;;;;;;;17.23;10.35;;;16.90;78.20;;;;;;5924307;24;20028;-87
2021/07/09 04:01:27;;;;;;;17.58;10.70;;;16.80;78.20;;;;;;5924271;24;20009;-88
2021/07/09 04:03:58;;;;;;;16.85;10.77;;;16.80;78.20;;;;;;6013812;23;20328;-88
2021/07/09 04:06:44;;;;;;;;;;;;;;;;;;;;;
2021/07/09 04:10:29;;;;;;;18.63;10.35;;;16.80;78.20;;;;;;6057382;23;20391;-87
2021/07/09 04:13:58;;;;;;;19.52;10.70;;;16.70;78.30;;;;;;6051895;23;20054;-87
2021/07/09 04:16:49;;;;;;;16.52;10.02;;;16.80;78.50;;;;;;6047343;23;20023;-87
2021/07/09 04:19:30;;;;;;;15.75;9.88;;;16.70;78.50;;;;;;6066784;23;20439;-86
2021/07/09 04:21:59;;;;;;;18.48;10.57;;;16.70;78.50;;;;;;6069389;23;20030;-87
2021/07/09 04:28:30;;;;;;;17.98;11.35;;;16.70;78.60;;;;;;6113786;23;20361;-87
2021/07/09 04:30:59;;;;;;;18.85;10.63;;;16.80;78.60;;;;;;6129685;23;20017;-87
2021/07/09 04:33:58;;;;;;;21.60;10.82;;;16.70;78.60;;;;;;6129608;23;20092;-88
2021/07/09 04:45:12;;;;;;;17.83;10.02;;;16.70;78.50;;;;;;6095015;23;20025;-87
2021/07/09 04:52:11;;;;;;;;;;;;;;;;;;;;;
2021/07/09 04:55:42;;;;;;;;;;;;;;;;;;;;;
2021/07/09 04:58:37;;;;;;;16.58;10.77;;;16.70;78.60;;;;;;6066219;23;20102;-87
2021/07/09 05:01:20;;;;;;;21.42;11.10;;;16.70;78.70;;;;;;6042190;23;20055;-85
2021/07/09 05:04:26;;;;;;;16.43;9.50;;;16.70;78.70;;;;;;6042374;23;20095;-86
2021/07/09 05:06:59;;;;;;;16.05;10.43;;;16.70;78.60;;;;;;5980739;23;20049;-87
2021/07/09 05:09:40;;;;;;;16.03;10.10;;;16.70;78.70;;;;;;6005322;23;20530;-87
2021/07/09 05:13:38;;;;;;;17.58;10.40;;;16.70;78.70;;;;;;5985196;23;20051;-86
2021/07/09 05:16:36;;;;;;;16.17;10.00;;;16.70;78.80;;;;;;6048110;23;20025;-87
2021/07/09 05:19:06;;;;;;;21.20;9.82;;;16.70;78.80;;;;;;6094905;23;20022;-89
2021/07/09 05:22:11;;;;;;;21.92;10.20;;;16.70;78.90;;;;;;6070901;23;20037;-86
2021/07/09 05:24:41;;;;;;;20.05;10.05;;;16.70;78.80;;;;;;6094793;23;20085;-88
2021/07/09 05:27:31;;;;;;;13.38;8.80;;;16.70;78.90;;;;;;6070756;23;20026;-86
2021/07/09 05:30:26;;;;;;;19.13;10.18;;;16.70;78.90;;;;;;6094668;23;20025;-87
2021/07/09 05:32:55;;;;;;;16.80;9.35;;;16.80;78.90;;;;;;6070988;23;20023;-87
2021/07/09 05:35:52;;;;;;;17.75;9.95;;;16.80;79.00;;;;;;6071222;23;20028;-87
2021/07/09 05:38:21;;;;;;;18.92;10.20;;;16.80;78.90;;;;;;6037226;23;20023;-86
2021/07/09 05:40:51;;;;;;;15.77;9.13;;;16.80;78.90;;;;;;6037222;23;20023;-88
2021/07/09 05:44:17;;;;;;;19.98;9.73;;;16.80;78.80;;;;;;6054883;23;20054;-88
2021/07/09 05:47:00;;;;;;;17.65;9.43;;;16.80;78.80;;;;;;6094367;23;20022;-87
2021/07/09 05:53:42;;;;;;;18.58;8.90;;;16.80;78.80;;;;;;6152153;23;20052;-87
2021/07/09 05:57:09;;;;;;;13.57;8.85;;;16.90;78.60;;;;;;6158922;23;20028;-86
2021/07/09 05:59:50;;;;;;;16.95;9.45;;;16.90;78.50;;;;;;6073331;23;20351;-87
2021/07/09 06:05:08;;;;;;;15.40;9.25;;;16.90;78.50;;;;;;6306865;22;20375;-87
2021/07/09 06:07:39;;;;;;;17.95;8.95;;;16.90;78.50;;;;;;6281066;22;20022;-86
2021/07/09 06:10:26;;;;;;;;;;;;;;;;;;;;;
2021/07/09 06:13:14;;;;;;;;;;;;;;;;;;;;;
2021/07/09 06:15:58;;;;;;;13.45;8.10;;;17.00;78.60;;;;;;6243300;23;20028;-84
2021/07/09 06:18:25;;;;;;;18.58;9.05;;;17.00;78.60;;;;;;6280468;22;20094;-87
2021/07/09 06:21:09;;;;;;;19.70;8.20;;;17.00;78.40;;;;;;6280305;22;20082;-85
2021/07/09 06:23:37;;;;;;;14.88;9.05;;;17.10;78.40;;;;;;6280912;22;20015;-87
2021/07/09 06:26:04;;;;;;;16.25;8.18;;;17.10;78.30;;;;;;6306939;22;20397;-87
2021/07/09 06:28:50;;;;;;;17.92;8.82;;;17.10;78.30;;;;;;6280313;22;20525;-86
2021/07/09 06:31:18;;;;;;;18.85;9.13;;;17.10;78.10;;;;;;6280034;22;20069;-85
2021/07/09 06:33:45;;;;;;;14.77;8.25;;;17.10;77.90;;;;;;6279983;22;20019;-87
2021/07/09 06:36:40;;;;;;;14.35;8.23;;;17.10;78.00;;;;;;6282251;22;20017;-86
2021/07/09 06:39:41;;;;;;;19.38;9.05;;;17.20;77.90;;;;;;6279814;22;20011;-87
2021/07/09 06:42:08;;;;;;;16.42;8.55;;;17.20;77.90;;;;;;6305592;22;20026;-85
2021/07/09 06:44:46;;;;;;;13.85;7.90;;;17.20;77.70;;;;;;6307386;22;20030;-86
2021/07/09 06:47:16;;;;;;;11.98;7.65;;;17.20;77.60;;;;;;6279925;22;20473;-86
2021/07/09 06:49:47;;;;;;;12.50;7.85;;;17.30;77.30;;;;;;6307184;22;20094;-86
2021/07/09 06:52:24;;;;;;;15.30;7.85;;;17.30;77.30;;;;;;6281458;22;20069;-86
2021/07/09 06:54:59;;;;;;;14.80;7.53;;;17.30;77.30;;;;;;6307117;22;20020;-86
2021/07/09 06:57:29;;;;;;;14.75;7.38;;;17.30;77.10;;;;;;6307294;22;20089;-86
2021/07/09 07:00:32;;;;;;;14.38;8.15;;;17.30;77.10;;;;;;6279990;22;20026;-87
2021/07/09 07:03:07;;;;;;;13.75;7.82;;;17.30;77.00;;;;;;6284051;22;20022;-86
2021/07/09 07:06:20;;;;;;;13.48;7.35;;;17.40;77.20;;;;;;6310819;22;20018;-87
2021/07/09 07:08:56;;;;;;;16.30;8.00;;;17.40;77.30;;;;;;6310760;22;20015;-87
2021/07/09 07:11:39;;;;;;;13.27;8.10;;;17.40;77.10;;;;;;6310611;22;20044;-87
2021/07/09 07:14:09;;;;;;;11.75;7.60;;;17.40;77.00;;;;;;6311161;22;20087;-86
2021/07/09 07:16:42;;;;;;;13.02;7.22;;;17.40;77.00;;;;;;6310484;22;20023;-84
2021/07/09 07:19:17;;;;;;;10.27;7.07;;;17.40;76.50;;;;;;6310688;22;20038;-86
2021/07/09 07:22:14;;;;;;;13.32;7.78;;;17.40;76.40;;;;;;6338086;22;20395;-86
2021/07/09 07:24:49;;;;;;;13.80;7.10;;;17.40;76.20;;;;;;6310566;22;20015;-86
2021/07/09 07:27:32;;;;;;;12.50;7.75;;;17.40;76.10;;;;;;6273314;22;20077;-87
2021/07/09 07:30:30;;;;;;;12.88;7.80;;;17.40;76.20;;;;;;6250594;22;20020;-87
2021/07/09 07:40:35;;;;;;;15.48;7.97;;;17.40;76.10;;;;;;6039690;23;20019;-86
2021/07/09 07:54:04;;;;;;;12.27;7.18;;;17.50;76.20;;;;;;6094301;23;20517;-90
2021/07/09 08:01:36;;;;;;;11.82;7.00;;;17.60;76.20;;;;;;6094054;23;20124;-87
2021/07/09 08:24:48;;;;;;;10.80;5.93;;;18.30;75.60;;;;;;6292047;22;20016;-87
2021/07/09 08:27:57;;;;;;;12.70;6.72;;;18.40;75.40;;;;;;6212536;23;20534;-87
2021/07/09 08:30:28;;;;;;;10.10;6.65;;;18.40;74.50;;;;;;6173754;23;20115;-89
2021/07/09 08:33:04;;;;;;;11.50;6.32;;;18.40;74.40;;;;;;6212686;23;20028;-89
2021/07/09 08:35:40;;;;;;;10.88;6.38;;;18.50;73.90;;;;;;6189687;23;20076;-87
2021/07/09 08:38:31;;;;;;;10.43;7.10;;;18.50;73.80;;;;;;6207945;23;20016;-88
2021/07/09 09:31:07;;;;;;;9.60;4.75;;;19.50;72.20;;;;;;6306176;22;20097;-87
2021/07/09 09:38:02;;;;;;;8.63;4.82;;;19.60;71.80;;;;;;6306155;22;20052;-87
2021/07/09 09:44:41;;;;;;;10.18;5.05;;;19.90;71.70;;;;;;6306433;22;20014;-88
2021/07/09 10:02:51;;;;;;;10.80;4.50;;;20.20;70.90;;;;;;6095572;23;20088;-87
2021/07/09 10:13:21;;;;;;;;;;;;;;;;;;;;;
2021/07/09 10:16:12;;;;;;;8.52;3.92;;;20.40;70.50;;;;;;6005548;23;20051;-89
2021/07/09 10:19:02;;;;;;;9.20;4.97;;;20.40;70.30;;;;;;5985083;23;20106;-87
2021/07/09 10:22:40;;;;;;;9.23;4.20;;;20.40;70.30;;;;;;6006922;23;20504;-88
2021/07/09 10:38:59;;;;;;;7.68;4.00;;;20.70;69.20;;;;;;6134514;22;4889944;-87
2021/07/09 10:53:15;;;;;;;10.00;4.10;;;21.00;68.70;;;;;;6100063;23;20026;-87
2021/07/09 10:56:45;;;;;;;;;;;;;;;;;;;;;
2021/07/09 11:00:30;;;;;;;8.93;4.43;;;21.10;68.70;;;;;;6014475;23;20395;-90
2021/07/09 11:03:49;;;;;;;7.82;4.75;;;21.30;68.40;;;;;;5995353;23;20022;-86
2021/07/09 11:07:18;;;;;;;;;;;;;;;;;;;;;
2021/07/09 11:14:15;;;;;;;7.13;4.20;;;21.60;66.70;;;;;;6043483;23;20486;-90
2021/07/09 11:17:24;;;;;;;9.57;4.45;;;21.70;66.80;;;;;;6043201;23;20102;-87
2021/07/09 11:20:40;;;;;;;7.25;4.47;;;21.80;66.50;;;;;;6022332;23;20022;-86
2021/07/09 11:23:39;;;;;;;8.57;4.55;;;21.80;66.80;;;;;;5995854;23;20518;-88
2021/07/09 11:26:58;;;;;;;;;;;;;;;;;;;;;
2021/07/09 11:30:16;;;;;;;7.93;4.60;;;22.00;66.70;;;;;;6131094;23;20358;-87
2021/07/09 11:37:24;;;;;;;8.73;4.90;;;22.30;65.90;;;;;;6106337;23;20021;-87
2021/07/09 11:44:59;;;;;;;;;;;;;;;;;;;;;
2021/07/09 12:09:44;;;;;;;9.32;4.55;;;23.00;65.40;;;;;;6356963;22;20041;-85
2021/07/09 12:12:48;;;;;;;10.43;4.47;;;23.20;65.40;;;;;;6370959;22;20042;-86
2021/07/09 13:16:49;;;;;;;6.03;3.13;;;24.90;58.70;;;;;;6243025;23;20495;-85
2021/07/09 14:12:05;;;;;;;5.70;2.92;;;25.70;58.90;;;;;;6399209;22;20431;-85
2021/07/09 14:15:26;;;;;;;5.72;2.90;;;25.60;58.60;;;;;;6375463;22;20018;-86
2021/07/09 14:22:37;;;;;;;5.68;2.95;;;25.50;59.00;;;;;;6272972;22;20534;-86
2021/07/09 14:55:44;;;;;;;6.57;2.42;;;25.30;59.80;;;;;;6401019;22;20012;-83
2021/07/09 15:18:21;;;;;;;6.35;3.35;;;24.50;60.10;;;;;;6371326;22;20009;-82
2021/07/09 15:27:56;;;;;;;5.28;3.50;;;24.30;60.00;;;;;;6371299;22;20037;-85
2021/07/09 15:31:12;;;;;;;6.35;3.30;;;24.20;60.50;;;;;;6252256;22;20027;-84
2021/07/09 15:34:30;;;;;;;5.43;2.92;;;24.20;61.20;;;;;;6249451;22;20023;-85
2021/07/09 15:37:52;;;;;;;5.55;3.20;;;24.20;61.40;;;;;;6158987;23;20028;-85
2021/07/09 15:41:15;;;;;;;6.07;2.97;;;24.10;61.20;;;;;;6124076;23;20097;-85
2021/07/09 15:43:56;;;;;;;5.20;2.70;;;24.10;61.60;;;;;;6062828;23;20102;-85
2021/07/09 15:54:37;;;;;;;;;;;;;;;;;;;;;
2021/07/09 15:57:18;;;;;;;6.97;3.88;;;23.90;61.60;;;;;;6047103;23;20073;-85
2021/07/09 16:04:17;;;;;;;7.28;3.55;;;23.90;62.10;;;;;;5923728;24;20465;-86
2021/07/09 16:07:04;;;;;;;9.55;3.40;;;23.90;62.00;;;;;;5960311;23;20103;-82
2021/07/09 16:09:43;;;;;;;5.43;3.25;;;23.90;61.80;;;;;;6007209;23;20078;-86
2021/07/09 16:20:11;;;;;;;5.70;3.42;;;23.90;62.20;;;;;;6080343;23;20100;-86
2021/07/09 16:23:02;;;;;;;;;;;;;;;;;;;;;
2021/07/09 16:25:46;;;;;;;6.28;3.25;;;23.90;61.90;;;;;;6078522;23;20033;-86
2021/07/09 16:28:14;;;;;;;5.90;3.40;;;24.00;62.10;;;;;;6094302;23;20026;-84
2021/07/09 16:31:28;;;;;;;;;;;;;;;;;;;;;
2021/07/09 16:34:09;;;;;;;7.35;3.55;;;24.00;62.40;;;;;;6093876;23;20058;-84
2021/07/09 16:36:52;;;;;;;7.85;3.30;;;24.10;62.30;;;;;;6067850;23;20037;-86
2021/07/09 16:43:12;;;;;;;9.23;3.28;;;24.30;62.30;;;;;;6093179;23;20208;-82
2021/07/09 16:45:45;;;;;;;5.35;2.85;;;24.30;62.20;;;;;;6093471;23;20018;-87
2021/07/09 16:48:12;;;;;;;4.70;2.83;;;24.30;62.00;;;;;;6069589;23;20034;-85
2021/07/09 16:50:40;;;;;;;5.80;3.42;;;24.30;61.80;;;;;;6115695;23;20049;-84
2021/07/09 16:53:27;;;;;;;6.35;3.33;;;24.30;61.50;;;;;;6122704;23;20044;-85
2021/07/09 16:56:04;;;;;;;6.57;3.42;;;24.30;61.40;;;;;;6122383;23;20057;-83
2021/07/09 16:58:38;;;;;;;5.70;3.03;;;24.30;61.60;;;;;;6122673;23;20093;-82
2021/07/09 17:01:32;;;;;;;6.65;3.22;;;24.30;61.90;;;;;;6122748;23;20045;-82
2021/07/09 17:04:50;;;;;;;11.93;3.60;;;24.30;62.30;;;;;;6121920;23;20573;-85
2021/07/09 17:11:15;;;;;;;7.18;3.33;;;24.10;61.90;;;;;;6065038;23;20047;-83
2021/07/09 17:14:10;;;;;;;6.13;3.40;;;24.10;61.60;;;;;;6065633;23;20497;-86
2021/07/09 17:20:05;;;;;;;6.28;3.45;;;24.00;61.60;;;;;;6155824;23;20025;-82
2021/07/09 17:22:33;;;;;;;5.30;3.10;;;23.90;61.70;;;;;;6182771;23;20489;-87
2021/07/09 17:25:01;;;;;;;6.63;3.15;;;23.90;61.70;;;;;;6158556;23;20017;-84
2021/07/09 17:27:30;;;;;;;8.18;3.17;;;23.90;61.60;;;;;;6158661;23;20051;-84
2021/07/09 17:33:58;;;;;;;5.97;3.13;;;23.80;61.30;;;;;;6151385;23;20021;-83
2021/07/09 17:36:34;;;;;;;7.10;2.97;;;23.70;61.60;;;;;;6152981;23;20014;-85
2021/07/09 17:39:02;;;;;;;5.82;2.80;;;23.70;62.10;;;;;;6175913;23;20427;-82
2021/07/09 17:41:31;;;;;;;6.30;2.90;;;23.60;62.50;;;;;;6182186;23;20024;-83
2021/07/09 17:44:35;;;;;;;7.40;2.50;;;23.60;62.70;;;;;;6230101;22;20046;-84
2021/07/09 17:47:08;;;;;;;5.55;2.50;;;23.50;62.90;;;;;;6273627;22;20070;-83
2021/07/09 17:53:58;;;;;;;5.55;2.42;;;23.40;62.70;;;;;;6273411;22;20038;-88
2021/07/09 18:06:29;;;;;;;7.00;2.97;;;23.10;62.60;;;;;;6346659;22;20358;-86
2021/07/09 18:25:01;;;;;;;6.60;2.67;;;22.60;63.60;;;;;;5924612;24;20032;-86
2021/07/09 18:31:43;;;;;;;5.07;3.10;;;22.40;64.40;;;;;;5896647;24;20020;-86
2021/07/09 19:10:15;;;;;;;6.40;3.40;;;21.40;67.50;;;;;;6073967;23;1476466;-87
2021/07/09 19:12:59;;;;;;;7.85;3.15;;;21.40;67.50;;;;;;6133951;23;20097;-86
2021/07/09 19:16:16;;;;;;;5.38;2.80;;;21.30;67.60;;;;;;6107987;23;20092;-88
2021/07/09 19:22:39;;;;;;;7.47;3.35;;;21.20;68.10;;;;;;6134224;23;20028;-86
2021/07/09 19:25:39;;;;;;;6.72;3.45;;;21.10;68.20;;;;;;6108347;23;20018;-87
2021/07/09 19:28:48;;;;;;;10.20;3.47;;;21.10;68.40;;;;;;6109565;23;20022;-86
2021/07/09 19:31:15;;;;;;;5.78;3.15;;;21.00;68.60;;;;;;6064186;23;20038;-85
2021/07/09 19:34:26;;;;;;;4.60;2.90;;;21.00;68.70;;;;;;6108512;23;20053;-87
2021/07/09 19:36:57;;;;;;;7.68;3.60;;;20.90;68.80;;;;;;5993336;23;20064;-86
2021/07/09 19:39:24;;;;;;;5.00;3.15;;;20.90;69.00;;;;;;6015834;23;20131;-87
2021/07/09 19:53:14;;;;;;;9.43;3.25;;;20.70;69.60;;;;;;6015946;23;20014;-85
2021/07/09 19:59:50;;;;;;;8.13;3.38;;;20.60;69.80;;;;;;5898780;24;20016;-87
2021/07/09 20:03:00;;;;;;;5.95;3.45;;;20.40;69.80;;;;;;5953553;23;20021;-85
2021/07/09 20:05:41;;;;;;;7.15;3.00;;;20.40;69.70;;;;;;5928380;24;20500;-84
2021/07/09 20:11:48;;;;;;;5.50;3.58;;;20.40;70.00;;;;;;5817734;24;20077;-85
2021/07/09 21:36:20;;;;;;;;;;;;;;;;;;;;;
2021/07/09 21:43:01;;;;;;;6.45;3.40;;;19.20;71.90;;;;;;6044280;23;20482;-86
2021/07/09 22:25:53;;;;;;;6.22;3.80;;;18.80;73.10;;;;;;6122657;23;20021;-87
2021/07/09 22:33:35;;;;;;;5.50;3.97;;;18.70;73.30;;;;;;5924590;24;20025;-83
2021/07/09 22:40:59;;;;;;;;;;;;;;;;;;;;;
2021/07/09 22:51:53;;;;;;;8.00;5.50;;;18.60;74.00;;;;;;5764015;24;20019;-83
2021/07/09 22:54:40;;;;;;;8.10;5.57;;;18.50;74.10;;;;;;5763883;24;20507;-84
2021/07/09 23:04:37;;;;;;;9.38;6.50;;;18.50;74.50;;;;;;5044795;27;1471486;-82
2021/07/09 23:11:38;;;;;;;12.23;7.18;;;18.40;74.70;;;;;;5048006;28;20633;-85
